sensor_id;sensor_type;location;lat;lon;timestamp;pressure;altitude;pressure_sealevel;temperature;humidity
30873;BME280;17579;42.690;2.586;2022-09-17T00:02:21;96877.06;;;20.97;43.43
30873;BME280;17579;42.690;2.586;2022-09-17T00:04:50;96873.38;;;20.91;43.58
30873;BME280;17579;42.690;2.586;2022-09-17T00:07:16;96860.16;;;20.90;43.82
30873;BME280;17579;42.690;2.586;2022-09-17T00:09:42;96863.75;;;20.84;43.71
30873;BME280;17579;42.690;2.586;2022-09-17T00:12:08;96860.50;;;20.75;44.00
30873;BME280;17579;42.690;2.586;2022-09-17T00:14:34;96875.88;;;20.68;43.77
30873;BME280;17579;42.690;2.586;2022-09-17T00:16:59;96888.28;;;20.69;43.88
30873;BME280;17579;42.690;2.586;2022-09-17T00:19:25;96890.34;;;20.67;44.00
30873;BME280;17579;42.690;2.586;2022-09-17T00:21:51;96897.16;;;20.63;44.47
30873;BME280;17579;42.690;2.586;2022-09-17T00:24:17;96870.50;;;20.61;43.97
30873;BME280;17579;42.690;2.586;2022-09-17T00:26:43;96879.81;;;20.58;44.01
30873;BME280;17579;42.690;2.586;2022-09-17T00:29:09;96879.22;;;20.56;43.86
30873;BME280;17579;42.690;2.586;2022-09-17T00:31:35;96874.28;;;20.53;44.37
30873;BME280;17579;42.690;2.586;2022-09-17T00:34:01;96888.56;;;20.47;44.08
30873;BME280;17579;42.690;2.586;2022-09-17T00:36:28;96882.81;;;20.43;44.58
30873;BME280;17579;42.690;2.586;2022-09-17T00:38:56;96880.59;;;20.40;44.38
30873;BME280;17579;42.690;2.586;2022-09-17T00:41:25;96879.59;;;20.35;44.44
30873;BME280;17579;42.690;2.586;2022-09-17T00:43:54;96865.34;;;20.34;44.38
30873;BME280;17579;42.690;2.586;2022-09-17T00:49:16;96871.56;;;20.28;44.86
30873;BME280;17579;42.690;2.586;2022-09-17T00:51:47;96900.50;;;20.26;44.83
30873;BME280;17579;42.690;2.586;2022-09-17T00:54:14;96882.16;;;20.23;44.82
30873;BME280;17579;42.690;2.586;2022-09-17T00:56:40;96895.38;;;20.18;44.67
30873;BME280;17579;42.690;2.586;2022-09-17T00:59:07;96885.06;;;20.15;45.09
30873;BME280;17579;42.690;2.586;2022-09-17T01:01:34;96892.34;;;20.07;45.09
30873;BME280;17579;42.690;2.586;2022-09-17T01:04:00;96909.09;;;20.03;45.25
30873;BME280;17579;42.690;2.586;2022-09-17T01:06:54;96912.63;;;19.97;45.28
30873;BME280;17579;42.690;2.586;2022-09-17T01:18:13;96932.81;;;20.06;45.10
30873;BME280;17579;42.690;2.586;2022-09-17T01:24:16;96940.94;;;19.93;45.61
30873;BME280;17579;42.690;2.586;2022-09-17T01:29:53;96966.94;;;19.92;45.50
30873;BME280;17579;42.690;2.586;2022-09-17T01:32:30;96963.41;;;19.98;45.66
30873;BME280;17579;42.690;2.586;2022-09-17T01:35:11;96968.75;;;19.98;45.48
30873;BME280;17579;42.690;2.586;2022-09-17T01:46:40;96962.00;;;19.96;45.56
30873;BME280;17579;42.690;2.586;2022-09-17T01:49:09;96965.28;;;19.98;46.27
30873;BME280;17579;42.690;2.586;2022-09-17T01:51:39;96964.88;;;19.94;46.26
30873;BME280;17579;42.690;2.586;2022-09-17T01:54:12;96968.41;;;19.88;46.29
30873;BME280;17579;42.690;2.586;2022-09-17T01:56:43;96963.88;;;19.88;45.96
30873;BME280;17579;42.690;2.586;2022-09-17T01:59:19;96953.34;;;19.87;45.86
30873;BME280;17579;42.690;2.586;2022-09-17T02:01:50;96983.28;;;19.84;46.22
30873;BME280;17579;42.690;2.586;2022-09-17T02:04:23;96981.22;;;19.79;46.66
30873;BME280;17579;42.690;2.586;2022-09-17T02:06:56;96986.16;;;19.82;46.46
30873;BME280;17579;42.690;2.586;2022-09-17T02:09:32;96977.31;;;19.82;46.43
30873;BME280;17579;42.690;2.586;2022-09-17T02:12:04;96972.97;;;19.81;46.60
30873;BME280;17579;42.690;2.586;2022-09-17T02:14:43;96975.22;;;19.70;46.62
30873;BME280;17579;42.690;2.586;2022-09-17T02:17:34;96978.13;;;19.62;46.16
30873;BME280;17579;42.690;2.586;2022-09-17T02:20:02;96956.66;;;19.62;46.51
30873;BME280;17579;42.690;2.586;2022-09-17T02:22:49;96957.94;;;19.46;46.59
30873;BME280;17579;42.690;2.586;2022-09-17T02:25:41;96962.28;;;19.41;46.30
30873;BME280;17579;42.690;2.586;2022-09-17T02:28:26;96963.13;;;19.41;46.32
30873;BME280;17579;42.690;2.586;2022-09-17T02:30:53;96960.22;;;19.43;46.03
30873;BME280;17579;42.690;2.586;2022-09-17T02:33:19;96960.88;;;19.38;46.29
30873;BME280;17579;42.690;2.586;2022-09-17T02:35:45;96954.88;;;19.36;46.22
30873;BME280;17579;42.690;2.586;2022-09-17T02:38:11;96954.25;;;19.34;46.34
30873;BME280;17579;42.690;2.586;2022-09-17T02:40:46;96960.44;;;19.28;46.00
30873;BME280;17579;42.690;2.586;2022-09-17T02:43:27;96964.38;;;19.25;45.99
30873;BME280;17579;42.690;2.586;2022-09-17T02:49:09;96970.97;;;19.23;45.95
30873;BME280;17579;42.690;2.586;2022-09-17T02:55:00;96985.81;;;19.18;45.89
30873;BME280;17579;42.690;2.586;2022-09-17T02:57:39;96979.44;;;19.13;45.75
30873;BME280;17579;42.690;2.586;2022-09-17T03:00:17;96985.41;;;19.08;45.68
30873;BME280;17579;42.690;2.586;2022-09-17T03:02:59;96984.56;;;19.08;45.94
30873;BME280;17579;42.690;2.586;2022-09-17T03:05:27;96987.47;;;19.13;46.05
30873;BME280;17579;42.690;2.586;2022-09-17T03:07:54;96987.03;;;19.09;45.92
30873;BME280;17579;42.690;2.586;2022-09-17T03:10:21;96991.19;;;19.05;46.08
30873;BME280;17579;42.690;2.586;2022-09-17T03:12:47;96983.75;;;19.00;45.58
30873;BME280;17579;42.690;2.586;2022-09-17T03:15:12;96983.13;;;18.98;45.88
30873;BME280;17579;42.690;2.586;2022-09-17T03:17:38;96977.97;;;18.97;45.84
30873;BME280;17579;42.690;2.586;2022-09-17T03:20:04;96989.94;;;18.94;46.22
30873;BME280;17579;42.690;2.586;2022-09-17T03:22:30;96990.94;;;18.93;46.15
30873;BME280;17579;42.690;2.586;2022-09-17T03:24:56;97003.50;;;18.86;46.19
30873;BME280;17579;42.690;2.586;2022-09-17T03:27:21;96991.78;;;18.87;46.55
30873;BME280;17579;42.690;2.586;2022-09-17T03:29:47;96981.88;;;18.87;46.18
30873;BME280;17579;42.690;2.586;2022-09-17T03:32:14;96985.75;;;18.78;46.21
30873;BME280;17579;42.690;2.586;2022-09-17T03:34:39;96983.91;;;18.72;46.64
30873;BME280;17579;42.690;2.586;2022-09-17T03:37:05;96979.97;;;18.68;46.73
30873;BME280;17579;42.690;2.586;2022-09-17T03:39:30;96978.94;;;18.62;47.12
30873;BME280;17579;42.690;2.586;2022-09-17T03:41:56;96976.47;;;18.61;47.48
30873;BME280;17579;42.690;2.586;2022-09-17T03:44:22;96977.88;;;18.57;47.64
30873;BME280;17579;42.690;2.586;2022-09-17T03:46:48;96981.59;;;18.56;47.72
30873;BME280;17579;42.690;2.586;2022-09-17T03:49:14;96981.38;;;18.57;47.66
30873;BME280;17579;42.690;2.586;2022-09-17T03:51:39;96974.19;;;18.58;47.71
30873;BME280;17579;42.690;2.586;2022-09-17T03:54:05;96979.13;;;18.61;47.66
30873;BME280;17579;42.690;2.586;2022-09-17T03:56:31;96987.59;;;18.64;47.88
30873;BME280;17579;42.690;2.586;2022-09-17T03:58:59;96987.78;;;18.63;47.73
30873;BME280;17579;42.690;2.586;2022-09-17T04:01:25;96992.13;;;18.64;47.88
30873;BME280;17579;42.690;2.586;2022-09-17T04:03:51;96988.81;;;18.62;47.67
30873;BME280;17579;42.690;2.586;2022-09-17T04:06:17;96984.69;;;18.59;47.69
30873;BME280;17579;42.690;2.586;2022-09-17T04:08:42;96979.75;;;18.56;47.67
30873;BME280;17579;42.690;2.586;2022-09-17T04:11:08;96992.50;;;18.54;47.56
30873;BME280;17579;42.690;2.586;2022-09-17T04:13:34;96985.91;;;18.50;47.23
30873;BME280;17579;42.690;2.586;2022-09-17T04:15:59;96981.16;;;18.45;47.10
30873;BME280;17579;42.690;2.586;2022-09-17T04:18:25;96995.56;;;18.44;47.01
30873;BME280;17579;42.690;2.586;2022-09-17T04:20:51;96998.66;;;18.41;47.15
30873;BME280;17579;42.690;2.586;2022-09-17T04:23:16;96998.25;;;18.38;46.83
30873;BME280;17579;42.690;2.586;2022-09-17T04:25:42;96986.88;;;18.35;46.86
30873;BME280;17579;42.690;2.586;2022-09-17T04:28:07;97002.75;;;18.30;46.70
30873;BME280;17579;42.690;2.586;2022-09-17T04:30:33;97015.69;;;18.27;46.83
30873;BME280;17579;42.690;2.586;2022-09-17T04:32:58;97014.69;;;18.28;46.86
30873;BME280;17579;42.690;2.586;2022-09-17T04:35:24;97012.19;;;18.26;46.86
30873;BME280;17579;42.690;2.586;2022-09-17T04:37:53;97014.03;;;18.26;46.68
30873;BME280;17579;42.690;2.586;2022-09-17T04:40:19;97020.66;;;18.30;46.88
30873;BME280;17579;42.690;2.586;2022-09-17T04:42:45;97011.38;;;18.32;46.61
30873;BME280;17579;42.690;2.586;2022-09-17T04:45:11;97016.13;;;18.30;46.90
30873;BME280;17579;42.690;2.586;2022-09-17T04:47:40;97031.16;;;18.31;46.95
30873;BME280;17579;42.690;2.586;2022-09-17T04:50:05;97017.34;;;18.34;46.66
30873;BME280;17579;42.690;2.586;2022-09-17T04:52:31;97031.78;;;18.33;46.77
30873;BME280;17579;42.690;2.586;2022-09-17T04:54:57;97018.19;;;18.35;46.91
30873;BME280;17579;42.690;2.586;2022-09-17T04:57:23;97031.78;;;18.40;47.03
30873;BME280;17579;42.690;2.586;2022-09-17T04:59:50;97018.41;;;18.40;47.14
30873;BME280;17579;42.690;2.586;2022-09-17T05:02:16;97029.97;;;18.41;47.22
30873;BME280;17579;42.690;2.586;2022-09-17T05:04:41;97030.16;;;18.39;47.46
30873;BME280;17579;42.690;2.586;2022-09-17T05:07:07;97027.47;;;18.32;47.45
30873;BME280;17579;42.690;2.586;2022-09-17T05:09:33;97031.34;;;18.30;47.30
30873;BME280;17579;42.690;2.586;2022-09-17T05:11:59;97026.84;;;18.30;47.58
30873;BME280;17579;42.690;2.586;2022-09-17T05:14:24;97035.25;;;18.27;47.77
30873;BME280;17579;42.690;2.586;2022-09-17T05:16:50;97027.03;;;18.29;47.69
30873;BME280;17579;42.690;2.586;2022-09-17T05:19:15;97032.78;;;18.26;47.30
30873;BME280;17579;42.690;2.586;2022-09-17T05:21:41;97032.16;;;18.24;47.35
30873;BME280;17579;42.690;2.586;2022-09-17T05:24:06;97037.72;;;18.22;47.67
30873;BME280;17579;42.690;2.586;2022-09-17T05:26:32;97038.13;;;18.19;47.62
30873;BME280;17579;42.690;2.586;2022-09-17T05:28:57;97043.28;;;18.21;47.52
30873;BME280;17579;42.690;2.586;2022-09-17T05:31:23;97047.59;;;18.22;47.31
30873;BME280;17579;42.690;2.586;2022-09-17T05:33:48;97039.38;;;18.23;47.36
30873;BME280;17579;42.690;2.586;2022-09-17T05:36:14;97045.53;;;18.24;47.31
30873;BME280;17579;42.690;2.586;2022-09-17T05:38:40;97050.69;;;18.25;47.34
30873;BME280;17579;42.690;2.586;2022-09-17T05:41:05;97050.50;;;18.27;47.27
30873;BME280;17579;42.690;2.586;2022-09-17T05:43:32;97057.50;;;18.28;47.32
30873;BME280;17579;42.690;2.586;2022-09-17T05:46:04;97058.13;;;18.23;47.45
30873;BME280;17579;42.690;2.586;2022-09-17T05:48:31;97060.00;;;18.29;47.25
30873;BME280;17579;42.690;2.586;2022-09-17T05:50:57;97057.72;;;18.33;46.96
30873;BME280;17579;42.690;2.586;2022-09-17T05:53:22;97071.38;;;18.45;47.17
30873;BME280;17579;42.690;2.586;2022-09-17T05:55:48;97077.03;;;18.63;46.66
30873;BME280;17579;42.690;2.586;2022-09-17T05:58:16;97069.44;;;18.80;46.29
30873;BME280;17579;42.690;2.586;2022-09-17T06:00:43;97076.50;;;18.95;46.42
30873;BME280;17579;42.690;2.586;2022-09-17T06:03:13;97068.28;;;19.03;46.28
30873;BME280;17579;42.690;2.586;2022-09-17T06:05:40;97066.03;;;19.13;45.70
30873;BME280;17579;42.690;2.586;2022-09-17T06:08:06;97074.72;;;19.15;45.65
30873;BME280;17579;42.690;2.586;2022-09-17T06:10:35;97062.13;;;19.23;45.67
30873;BME280;17579;42.690;2.586;2022-09-17T06:13:01;97085.66;;;19.41;45.28
30873;BME280;17579;42.690;2.586;2022-09-17T06:15:27;97082.56;;;19.57;44.80
30873;BME280;17579;42.690;2.586;2022-09-17T06:17:53;97065.66;;;19.70;44.44
30873;BME280;17579;42.690;2.586;2022-09-17T06:20:19;97076.78;;;19.73;44.37
30873;BME280;17579;42.690;2.586;2022-09-17T06:22:45;97077.19;;;19.77;44.33
30873;BME280;17579;42.690;2.586;2022-09-17T06:25:11;97074.72;;;19.82;43.71
30873;BME280;17579;42.690;2.586;2022-09-17T06:27:37;97070.78;;;19.78;43.75
30873;BME280;17579;42.690;2.586;2022-09-17T06:30:04;97085.06;;;19.65;44.03
30873;BME280;17579;42.690;2.586;2022-09-17T06:32:29;97076.16;;;19.58;44.17
30873;BME280;17579;42.690;2.586;2022-09-17T06:34:55;97082.38;;;19.45;44.30
30873;BME280;17579;42.690;2.586;2022-09-17T06:37:29;97074.91;;;19.27;44.51
30873;BME280;17579;42.690;2.586;2022-09-17T06:39:55;97083.56;;;19.16;44.32
30873;BME280;17579;42.690;2.586;2022-09-17T06:42:22;97100.44;;;19.03;44.70
30873;BME280;17579;42.690;2.586;2022-09-17T06:44:47;97111.56;;;19.00;45.04
30873;BME280;17579;42.690;2.586;2022-09-17T06:47:13;97082.91;;;19.00;44.50
30873;BME280;17579;42.690;2.586;2022-09-17T06:49:39;97081.69;;;19.16;44.37
30873;BME280;17579;42.690;2.586;2022-09-17T06:52:04;97088.09;;;19.22;44.37
30873;BME280;17579;42.690;2.586;2022-09-17T06:54:30;97074.91;;;19.20;44.48
30873;BME280;17579;42.690;2.586;2022-09-17T06:56:55;97085.03;;;19.18;44.40
30873;BME280;17579;42.690;2.586;2022-09-17T06:59:21;97088.13;;;19.15;44.38
30873;BME280;17579;42.690;2.586;2022-09-17T07:01:47;97084.59;;;19.21;44.38
30873;BME280;17579;42.690;2.586;2022-09-17T07:04:13;97086.28;;;19.43;44.10
30873;BME280;17579;42.690;2.586;2022-09-17T07:06:39;97083.19;;;19.46;44.07
30873;BME280;17579;42.690;2.586;2022-09-17T07:09:04;97089.56;;;19.65;43.59
30873;BME280;17579;42.690;2.586;2022-09-17T07:11:32;97087.31;;;19.55;43.48
30873;BME280;17579;42.690;2.586;2022-09-17T07:13:57;97090.81;;;19.42;43.50
30873;BME280;17579;42.690;2.586;2022-09-17T07:16:23;97086.69;;;19.33;43.94
30873;BME280;17579;42.690;2.586;2022-09-17T07:18:50;97068.75;;;19.27;43.91
30873;BME280;17579;42.690;2.586;2022-09-17T07:21:16;97079.44;;;19.20;44.09
30873;BME280;17579;42.690;2.586;2022-09-17T07:23:42;97078.19;;;19.16;43.62
30873;BME280;17579;42.690;2.586;2022-09-17T07:26:12;97070.13;;;19.09;44.11
30873;BME280;17579;42.690;2.586;2022-09-17T07:28:39;97081.28;;;19.13;43.99
30873;BME280;17579;42.690;2.586;2022-09-17T07:31:06;97090.19;;;19.20;43.97
30873;BME280;17579;42.690;2.586;2022-09-17T07:33:33;97090.81;;;19.29;44.04
30873;BME280;17579;42.690;2.586;2022-09-17T07:36:01;97086.50;;;19.41;43.89
30873;BME280;17579;42.690;2.586;2022-09-17T07:38:28;97099.47;;;19.51;43.39
30873;BME280;17579;42.690;2.586;2022-09-17T07:40:57;97093.91;;;19.59;42.95
30873;BME280;17579;42.690;2.586;2022-09-17T07:43:26;97096.19;;;19.55;43.29
30873;BME280;17579;42.690;2.586;2022-09-17T07:45:53;97089.78;;;19.56;43.25
30873;BME280;17579;42.690;2.586;2022-09-17T07:48:19;97093.69;;;19.61;43.52
30873;BME280;17579;42.690;2.586;2022-09-17T07:50:46;97098.66;;;19.57;42.83
30873;BME280;17579;42.690;2.586;2022-09-17T07:53:12;97098.88;;;19.55;43.08
30873;BME280;17579;42.690;2.586;2022-09-17T07:55:38;97109.78;;;19.61;42.90
30873;BME280;17579;42.690;2.586;2022-09-17T07:58:03;97116.41;;;19.58;42.89
30873;BME280;17579;42.690;2.586;2022-09-17T08:00:29;97112.06;;;19.64;43.08
30873;BME280;17579;42.690;2.586;2022-09-17T08:02:55;97116.00;;;19.68;42.93
30873;BME280;17579;42.690;2.586;2022-09-17T08:05:23;97113.31;;;19.68;42.50
30873;BME280;17579;42.690;2.586;2022-09-17T08:07:53;97123.63;;;19.71;42.67
30873;BME280;17579;42.690;2.586;2022-09-17T08:10:21;97122.81;;;19.77;42.63
30873;BME280;17579;42.690;2.586;2022-09-17T08:12:48;97109.84;;;19.94;42.48
30873;BME280;17579;42.690;2.586;2022-09-17T08:15:15;97125.50;;;20.11;42.49
30873;BME280;17579;42.690;2.586;2022-09-17T08:17:44;97116.38;;;20.25;42.17
30873;BME280;17579;42.690;2.586;2022-09-17T08:20:12;97130.19;;;20.42;42.02
30873;BME280;17579;42.690;2.586;2022-09-17T08:22:38;97130.97;;;20.56;41.27
30873;BME280;17579;42.690;2.586;2022-09-17T08:25:05;97128.88;;;20.65;41.60
30873;BME280;17579;42.690;2.586;2022-09-17T08:27:31;97119.34;;;20.75;40.96
30873;BME280;17579;42.690;2.586;2022-09-17T08:29:56;97123.44;;;20.85;40.59
30873;BME280;17579;42.690;2.586;2022-09-17T08:32:22;97129.03;;;20.83;41.15
30873;BME280;17579;42.690;2.586;2022-09-17T08:34:48;97128.34;;;20.94;40.83
30873;BME280;17579;42.690;2.586;2022-09-17T08:37:14;97118.44;;;20.95;40.51
30873;BME280;17579;42.690;2.586;2022-09-17T08:39:39;97133.13;;;20.86;40.54
30873;BME280;17579;42.690;2.586;2022-09-17T08:42:32;97146.84;;;20.77;40.91
30873;BME280;17579;42.690;2.586;2022-09-17T08:45:03;97123.69;;;20.76;40.58
30873;BME280;17579;42.690;2.586;2022-09-17T08:47:33;97130.50;;;20.72;40.94
30873;BME280;17579;42.690;2.586;2022-09-17T08:50:06;97133.63;;;20.76;40.72
30873;BME280;17579;42.690;2.586;2022-09-17T08:52:50;97123.06;;;20.74;41.15
30873;BME280;17579;42.690;2.586;2022-09-17T08:55:39;97127.97;;;20.91;40.15
30873;BME280;17579;42.690;2.586;2022-09-17T08:58:39;97137.50;;;20.87;40.94
30873;BME280;17579;42.690;2.586;2022-09-17T09:04:18;97126.84;;;21.05;40.54
30873;BME280;17579;42.690;2.586;2022-09-17T09:06:54;97132.88;;;21.01;40.23
30873;BME280;17579;42.690;2.586;2022-09-17T09:09:24;97134.13;;;20.98;39.92
30873;BME280;17579;42.690;2.586;2022-09-17T09:12:03;97141.78;;;20.94;40.32
30873;BME280;17579;42.690;2.586;2022-09-17T09:14:34;97141.31;;;21.04;40.27
30873;BME280;17579;42.690;2.586;2022-09-17T09:17:06;97140.22;;;21.19;40.52
30873;BME280;17579;42.690;2.586;2022-09-17T09:19:41;97145.94;;;21.29;40.31
30873;BME280;17579;42.690;2.586;2022-09-17T09:25:24;97153.88;;;21.56;39.54
30873;BME280;17579;42.690;2.586;2022-09-17T09:28:10;97135.59;;;21.65;39.70
30873;BME280;17579;42.690;2.586;2022-09-17T09:30:59;97151.94;;;21.70;39.61
30873;BME280;17579;42.690;2.586;2022-09-17T09:33:35;97145.44;;;21.77;39.53
30873;BME280;17579;42.690;2.586;2022-09-17T09:36:06;97147.25;;;21.84;38.89
30873;BME280;17579;42.690;2.586;2022-09-17T09:38:42;97138.81;;;21.80;39.44
30873;BME280;17579;42.690;2.586;2022-09-17T09:44:15;97156.00;;;22.04;38.27
30873;BME280;17579;42.690;2.586;2022-09-17T09:50:14;97145.38;;;22.09;39.14
30873;BME280;17579;42.690;2.586;2022-09-17T09:53:02;97137.53;;;22.26;38.67
30873;BME280;17579;42.690;2.586;2022-09-17T09:58:39;97134.44;;;22.48;38.20
30873;BME280;17579;42.690;2.586;2022-09-17T10:01:17;97135.88;;;22.51;38.60
30873;BME280;17579;42.690;2.586;2022-09-17T10:03:48;97124.19;;;22.57;38.19
30873;BME280;17579;42.690;2.586;2022-09-17T10:06:16;97126.66;;;22.77;38.38
30873;BME280;17579;42.690;2.586;2022-09-17T10:09:11;97130.47;;;22.88;37.92
30873;BME280;17579;42.690;2.586;2022-09-17T10:11:37;97132.34;;;22.87;36.95
30873;BME280;17579;42.690;2.586;2022-09-17T10:14:23;97130.19;;;22.77;37.50
30873;BME280;17579;42.690;2.586;2022-09-17T10:19:38;97135.56;;;22.96;36.67
30873;BME280;17579;42.690;2.586;2022-09-17T10:24:54;97124.25;;;22.87;36.99
30873;BME280;17579;42.690;2.586;2022-09-17T10:27:22;97128.50;;;22.95;36.54
30873;BME280;17579;42.690;2.586;2022-09-17T10:29:52;97140.09;;;22.95;36.77
30873;BME280;17579;42.690;2.586;2022-09-17T10:32:21;97126.31;;;23.04;36.41
30873;BME280;17579;42.690;2.586;2022-09-17T10:35:13;97121.06;;;23.09;37.00
30873;BME280;17579;42.690;2.586;2022-09-17T10:37:47;97118.31;;;23.27;36.69
30873;BME280;17579;42.690;2.586;2022-09-17T10:40:33;97117.28;;;23.28;36.94
30873;BME280;17579;42.690;2.586;2022-09-17T10:43:16;97113.88;;;23.33;36.80
30873;BME280;17579;42.690;2.586;2022-09-17T10:45:44;97106.16;;;23.37;35.79
30873;BME280;17579;42.690;2.586;2022-09-17T10:48:20;97105.13;;;23.38;35.96
30873;BME280;17579;42.690;2.586;2022-09-17T10:50:54;97112.75;;;23.41;36.66
30873;BME280;17579;42.690;2.586;2022-09-17T10:53:21;97096.00;;;23.50;35.86
30873;BME280;17579;42.690;2.586;2022-09-17T10:56:15;97098.34;;;23.59;36.00
30873;BME280;17579;42.690;2.586;2022-09-17T10:59:12;97097.44;;;23.65;35.97
30873;BME280;17579;42.690;2.586;2022-09-17T11:02:21;97089.44;;;23.70;35.89
30873;BME280;17579;42.690;2.586;2022-09-17T11:05:06;97088.38;;;23.83;36.22
30873;BME280;17579;42.690;2.586;2022-09-17T11:08:02;97089.38;;;23.89;35.94
30873;BME280;17579;42.690;2.586;2022-09-17T11:10:36;97083.38;;;23.98;35.52
30873;BME280;17579;42.690;2.586;2022-09-17T11:13:19;97091.13;;;24.07;35.77
30873;BME280;17579;42.690;2.586;2022-09-17T11:16:11;97100.41;;;24.23;35.46
30873;BME280;17579;42.690;2.586;2022-09-17T11:18:42;97086.91;;;24.23;34.83
30873;BME280;17579;42.690;2.586;2022-09-17T11:21:35;97089.84;;;24.21;35.23
30873;BME280;17579;42.690;2.586;2022-09-17T11:27:21;97066.28;;;24.33;34.68
30873;BME280;17579;42.690;2.586;2022-09-17T11:30:03;97070.63;;;24.46;35.00
30873;BME280;17579;42.690;2.586;2022-09-17T11:35:27;97052.16;;;24.67;33.85
30873;BME280;17579;42.690;2.586;2022-09-17T11:38:17;97062.28;;;24.60;34.71
30873;BME280;17579;42.690;2.586;2022-09-17T11:44:14;97061.50;;;24.76;34.16
30873;BME280;17579;42.690;2.586;2022-09-17T11:46:46;97051.25;;;24.78;33.60
30873;BME280;17579;42.690;2.586;2022-09-17T11:49:32;97060.16;;;24.62;33.85
30873;BME280;17579;42.690;2.586;2022-09-17T11:52:15;97053.78;;;24.56;33.98
30873;BME280;17579;42.690;2.586;2022-09-17T11:54:51;97056.50;;;24.56;33.39
30873;BME280;17579;42.690;2.586;2022-09-17T11:57:32;97050.53;;;24.54;33.44
30873;BME280;17579;42.690;2.586;2022-09-17T12:00:05;97048.13;;;24.58;33.64
30873;BME280;17579;42.690;2.586;2022-09-17T12:03:00;97044.13;;;24.72;33.74
30873;BME280;17579;42.690;2.586;2022-09-17T12:11:21;97029.66;;;24.95;33.34
30873;BME280;17579;42.690;2.586;2022-09-17T12:13:50;97032.81;;;25.04;32.69
30873;BME280;17579;42.690;2.586;2022-09-17T12:16:25;97027.56;;;24.97;32.52
30873;BME280;17579;42.690;2.586;2022-09-17T12:19:07;97021.06;;;24.98;32.87
30873;BME280;17579;42.690;2.586;2022-09-17T12:21:40;97014.34;;;25.01;32.30
30873;BME280;17579;42.690;2.586;2022-09-17T12:24:27;97020.50;;;24.96;32.92
30873;BME280;17579;42.690;2.586;2022-09-17T12:27:16;97013.94;;;24.92;32.64
30873;BME280;17579;42.690;2.586;2022-09-17T12:30:01;97018.34;;;24.98;32.27
30873;BME280;17579;42.690;2.586;2022-09-17T12:41:10;97031.44;;;25.18;32.25
30873;BME280;17579;42.690;2.586;2022-09-17T12:47:01;97017.91;;;25.18;31.93
30873;BME280;17579;42.690;2.586;2022-09-17T12:58:22;97008.81;;;25.58;31.45
30873;BME280;17579;42.690;2.586;2022-09-17T13:01:04;97009.91;;;25.57;31.30
30873;BME280;17579;42.690;2.586;2022-09-17T13:03:39;97015.63;;;25.61;31.28
30873;BME280;17579;42.690;2.586;2022-09-17T13:06:36;97001.53;;;25.59;31.50
30873;BME280;17579;42.690;2.586;2022-09-17T13:12:24;97011.75;;;25.74;31.17
30873;BME280;17579;42.690;2.586;2022-09-17T13:15:18;96998.09;;;25.86;30.68
30873;BME280;17579;42.690;2.586;2022-09-17T13:17:56;97001.53;;;25.76;30.70
30873;BME280;17579;42.690;2.586;2022-09-17T13:20:31;96994.28;;;25.82;31.24
30873;BME280;17579;42.690;2.586;2022-09-17T13:22:59;96994.00;;;26.00;30.94
30873;BME280;17579;42.690;2.586;2022-09-17T13:25:25;96993.78;;;26.24;29.76
30873;BME280;17579;42.690;2.586;2022-09-17T13:28:04;97011.16;;;26.50;29.87
30873;BME280;17579;42.690;2.586;2022-09-17T13:30:55;97005.78;;;26.77;29.66
30873;BME280;17579;42.690;2.586;2022-09-17T13:36:35;96997.44;;;27.44;28.27
30873;BME280;17579;42.690;2.586;2022-09-17T13:39:04;96984.09;;;27.75;27.60
30873;BME280;17579;42.690;2.586;2022-09-17T13:41:34;96979.66;;;28.06;27.77
30873;BME280;17579;42.690;2.586;2022-09-17T13:44:03;96986.06;;;28.38;26.90
30873;BME280;17579;42.690;2.586;2022-09-17T13:46:30;96973.88;;;28.61;26.36
30873;BME280;17579;42.690;2.586;2022-09-17T13:49:12;96972.50;;;28.58;26.60
30873;BME280;17579;42.690;2.586;2022-09-17T13:51:44;96969.84;;;28.68;26.19
30873;BME280;17579;42.690;2.586;2022-09-17T13:54:11;96972.59;;;28.84;26.16
30873;BME280;17579;42.690;2.586;2022-09-17T13:56:41;96967.41;;;28.88;25.87
30873;BME280;17579;42.690;2.586;2022-09-17T13:59:17;96962.78;;;28.78;26.01
30873;BME280;17579;42.690;2.586;2022-09-17T14:04:50;96961.09;;;28.56;25.52
30873;BME280;17579;42.690;2.586;2022-09-17T14:07:44;96955.34;;;28.52;25.76
30873;BME280;17579;42.690;2.586;2022-09-17T14:10:33;96966.25;;;28.58;25.82
30873;BME280;17579;42.690;2.586;2022-09-17T14:13:23;96961.94;;;28.67;26.36
30873;BME280;17579;42.690;2.586;2022-09-17T14:15:57;96973.94;;;28.71;25.95
30873;BME280;17579;42.690;2.586;2022-09-17T14:18:34;96952.94;;;28.61;25.72
30873;BME280;17579;42.690;2.586;2022-09-17T14:21:08;96977.66;;;28.55;25.36
30873;BME280;17579;42.690;2.586;2022-09-17T14:23:45;96970.25;;;28.34;26.30
30873;BME280;17579;42.690;2.586;2022-09-17T14:26:38;96962.97;;;28.50;26.13
30873;BME280;17579;42.690;2.586;2022-09-17T14:29:38;96974.41;;;28.58;25.62
30873;BME280;17579;42.690;2.586;2022-09-17T14:32:13;96966.84;;;28.65;25.17
30873;BME280;17579;42.690;2.586;2022-09-17T14:34:40;96954.00;;;28.60;25.05
30873;BME280;17579;42.690;2.586;2022-09-17T14:37:11;96965.94;;;28.44;25.09
30873;BME280;17579;42.690;2.586;2022-09-17T14:39:39;96969.13;;;28.25;25.00
30873;BME280;17579;42.690;2.586;2022-09-17T14:42:13;96955.91;;;27.91;25.66
30873;BME280;17579;42.690;2.586;2022-09-17T14:44:57;96970.28;;;27.81;26.14
30873;BME280;17579;42.690;2.586;2022-09-17T14:47:24;96963.78;;;27.88;25.28
30873;BME280;17579;42.690;2.586;2022-09-17T14:49:51;96967.28;;;27.83;25.56
30873;BME280;17579;42.690;2.586;2022-09-17T14:52:37;96960.44;;;27.75;25.69
30873;BME280;17579;42.690;2.586;2022-09-17T14:55:23;96967.78;;;27.75;25.78
30873;BME280;17579;42.690;2.586;2022-09-17T14:57:55;96966.88;;;27.64;25.71
30873;BME280;17579;42.690;2.586;2022-09-17T15:00:28;96972.84;;;27.56;25.82
30873;BME280;17579;42.690;2.586;2022-09-17T15:02:57;96959.25;;;27.61;25.65
30873;BME280;17579;42.690;2.586;2022-09-17T15:05:28;96968.47;;;27.55;25.95